Time;durP1;ratioP1;P1;durP2;ratioP2;P2;SDS_P1;SDS_P2;PMS_P1;PMS_P2;Temp;Humidity;BMP_temperature;BMP_pressure;BME280_temperature;BME280_humidity;BME280_pressure;Samples;Min_cycle;Max_cycle;Signal;HPM_P1;HPM_P2
2021/05/10 00:00:07;;;;;;;13.65;8.00;;;19.70;70.80;;;;;;5014493;28;20030;-70
2021/05/10 00:02:33;;;;;;;13.05;8.25;;;19.60;70.90;;;;;;5014122;28;20044;-69
2021/05/10 00:04:58;;;;;;;12.75;7.65;;;19.60;71.00;;;;;;5014213;28;20472;-68
2021/05/10 00:07:24;;;;;;;12.52;8.18;;;19.60;71.30;;;;;;5014545;28;20018;-69
2021/05/10 00:09:50;;;;;;;13.07;8.15;;;19.60;71.40;;;;;;5014135;28;20030;-69
2021/05/10 00:12:15;;;;;;;9.38;7.07;;;19.50;71.40;;;;;;5014022;28;20131;-70
2021/05/10 00:14:44;;;;;;;13.85;8.23;;;19.50;71.30;;;;;;5014139;28;20096;-70
2021/05/10 00:17:10;;;;;;;12.82;7.85;;;19.50;71.50;;;;;;5014027;28;20109;-68
2021/05/10 00:19:37;;;;;;;11.30;8.02;;;19.60;71.60;;;;;;5014000;28;20022;-69
2021/05/10 00:22:03;;;;;;;10.30;7.07;;;19.50;71.80;;;;;;5020570;28;20494;-70
2021/05/10 00:24:28;;;;;;;10.10;7.20;;;19.60;71.90;;;;;;5033792;28;20032;-69
2021/05/10 00:26:55;;;;;;;12.10;7.82;;;19.60;71.90;;;;;;5015898;28;20065;-68
2021/05/10 00:29:21;;;;;;;12.82;8.15;;;19.50;72.30;;;;;;5033645;28;20371;-68
2021/05/10 00:31:47;;;;;;;11.07;7.60;;;19.40;72.50;;;;;;5015892;28;20552;-69
2021/05/10 00:34:14;;;;;;;12.23;7.30;;;19.30;72.40;;;;;;5033457;28;20032;-68
2021/05/10 00:36:40;;;;;;;11.60;7.93;;;19.30;72.70;;;;;;5033392;28;20091;-69
2021/05/10 00:39:06;;;;;;;12.40;8.05;;;19.30;72.70;;;;;;5033388;28;20061;-68
2021/05/10 00:41:33;;;;;;;12.23;7.68;;;19.30;73.20;;;;;;5033499;28;20475;-68
2021/05/10 00:43:59;;;;;;;19.92;9.25;;;19.30;73.10;;;;;;5033334;28;20063;-69
2021/05/10 00:46:25;;;;;;;12.68;7.55;;;19.40;73.50;;;;;;5033553;28;20025;-69
2021/05/10 00:48:51;;;;;;;13.18;8.18;;;19.30;73.20;;;;;;5033454;28;20601;-68
2021/05/10 00:51:17;;;;;;;12.77;8.45;;;19.30;73.60;;;;;;5032959;28;20109;-68
2021/05/10 00:53:44;;;;;;;9.98;7.80;;;19.30;74.10;;;;;;5033062;28;20115;-68
2021/05/10 00:56:10;;;;;;;11.05;8.23;;;19.20;74.00;;;;;;5033218;28;20037;-70
2021/05/10 00:58:38;;;;;;;12.93;7.93;;;19.20;74.40;;;;;;5033310;28;20485;-69
2021/05/10 01:01:04;;;;;;;11.65;7.32;;;19.20;74.50;;;;;;5033093;28;20013;-68
2021/05/10 01:03:29;;;;;;;12.63;7.57;;;19.20;74.40;;;;;;5033043;28;20044;-68
2021/05/10 01:05:56;;;;;;;11.63;7.40;;;19.30;74.60;;;;;;5033191;28;20009;-68
2021/05/10 01:08:21;;;;;;;11.35;7.32;;;19.30;74.40;;;;;;5033295;28;20112;-69
2021/05/10 01:10:48;;;;;;;9.32;7.30;;;19.30;74.30;;;;;;5033029;28;20049;-69
2021/05/10 01:13:16;;;;;;;10.30;7.38;;;19.30;74.40;;;;;;5033123;28;20588;-70
2021/05/10 01:15:42;;;;;;;9.13;6.70;;;19.40;74.20;;;;;;5032954;28;20497;-69
2021/05/10 01:18:08;;;;;;;11.65;7.95;;;19.40;74.50;;;;;;5015308;28;20501;-70
2021/05/10 01:20:34;;;;;;;10.98;7.22;;;19.30;74.40;;;;;;5032944;28;20013;-69
2021/05/10 01:23:01;;;;;;;11.98;7.43;;;19.30;74.30;;;;;;5032819;28;20050;-69
2021/05/10 01:25:30;;;;;;;10.52;7.40;;;19.30;74.50;;;;;;5032976;28;20021;-69
2021/05/10 01:27:58;;;;;;;11.25;7.55;;;19.30;74.30;;;;;;5033034;28;20025;-69
2021/05/10 01:30:33;;;;;;;13.73;6.95;;;19.20;74.30;;;;;;5033024;28;20486;-69
2021/05/10 01:33:01;;;;;;;12.27;7.57;;;19.20;74.10;;;;;;5032890;28;20037;-69
2021/05/10 01:35:29;;;;;;;11.30;7.55;;;19.20;74.00;;;;;;5032762;28;20021;-69
2021/05/10 01:37:56;;;;;;;13.65;8.75;;;19.10;73.60;;;;;;5032999;28;20175;-68
2021/05/10 01:40:22;;;;;;;13.63;8.68;;;19.00;73.10;;;;;;5032842;28;20022;-69
2021/05/10 01:42:48;;;;;;;14.82;9.38;;;19.00;72.80;;;;;;5032704;28;20029;-68
2021/05/10 01:45:14;;;;;;;14.10;9.35;;;18.90;72.70;;;;;;5034265;28;20091;-69
2021/05/10 01:47:41;;;;;;;15.30;9.95;;;18.70;72.80;;;;;;5019056;28;20075;-69
2021/05/10 01:50:15;;;;;;;17.10;9.90;;;18.60;72.90;;;;;;5036847;28;20056;-69
2021/05/10 01:52:41;;;;;;;18.45;9.50;;;18.40;73.00;;;;;;5036430;28;20034;-69
2021/05/10 01:55:08;;;;;;;16.95;9.40;;;18.40;73.50;;;;;;5036648;28;20033;-69
2021/05/10 01:57:34;;;;;;;16.05;8.90;;;18.40;73.50;;;;;;5036380;28;20429;-68
2021/05/10 02:00:00;;;;;;;15.20;9.70;;;18.50;73.20;;;;;;5036227;28;20026;-69
2021/05/10 02:02:26;;;;;;;15.52;9.60;;;18.40;73.10;;;;;;5036256;28;20056;-69
2021/05/10 02:05:16;;;;;;;17.08;9.45;;;18.40;73.20;;;;;;5036171;28;20029;-68
2021/05/10 02:07:55;;;;;;;19.08;10.00;;;18.50;74.00;;;;;;5036183;28;20010;-69
2021/05/10 02:10:31;;;;;;;16.42;9.95;;;18.40;72.50;;;;;;5036165;28;20072;-69
2021/05/10 02:13:05;;;;;;;15.77;9.80;;;18.40;73.00;;;;;;5036102;28;20033;-70
2021/05/10 02:15:35;;;;;;;;;;;18.40;73.90;;;;;;5036520;28;20034;-69
2021/05/10 02:18:01;;;;;;;15.50;10.07;;;18.40;74.60;;;;;;5036201;28;19905;-68
2021/05/10 02:20:28;;;;;;;14.27;10.32;;;18.30;73.30;;;;;;5035721;28;20071;-71
2021/05/10 02:22:59;;;;;;;14.45;9.23;;;18.30;73.00;;;;;;5035738;28;20073;-69
2021/05/10 02:25:28;;;;;;;15.60;11.10;;;18.30;74.20;;;;;;5035996;28;20061;-68
2021/05/10 02:27:55;;;;;;;17.38;10.93;;;18.30;73.20;;;;;;5035900;28;20391;-68
2021/05/10 02:30:23;;;;;;;13.90;10.07;;;18.30;73.50;;;;;;5035822;28;20061;-69
2021/05/10 02:32:49;;;;;;;16.20;9.70;;;18.20;73.60;;;;;;5017523;28;20059;-68
2021/05/10 02:35:15;;;;;;;17.35;10.18;;;18.20;73.50;;;;;;5017695;28;20029;-68
2021/05/10 02:37:42;;;;;;;14.23;9.57;;;18.20;73.80;;;;;;5035901;28;20025;-69
2021/05/10 02:40:09;;;;;;;17.50;9.05;;;18.10;73.70;;;;;;5035812;28;20053;-68
2021/05/10 02:42:35;;;;;;;15.30;10.23;;;18.20;74.00;;;;;;5035474;28;20052;-68
2021/05/10 02:45:01;;;;;;;13.95;10.27;;;18.10;73.60;;;;;;5035555;28;20061;-68
2021/05/10 02:47:27;;;;;;;15.38;9.65;;;18.20;73.60;;;;;;5035363;28;20025;-68
2021/05/10 02:49:56;;;;;;;17.05;10.00;;;18.10;73.60;;;;;;5035438;28;20021;-67
2021/05/10 02:52:22;;;;;;;16.90;9.50;;;18.10;73.40;;;;;;5035088;28;20123;-68
2021/05/10 02:54:48;;;;;;;12.98;8.75;;;18.10;73.50;;;;;;5035513;28;20053;-68
2021/05/10 02:57:15;;;;;;;13.77;9.15;;;18.10;73.50;;;;;;5016405;28;20033;-68
2021/05/10 02:59:40;;;;;;;15.13;9.38;;;18.10;73.50;;;;;;5035366;28;20022;-69
2021/05/10 03:02:06;;;;;;;14.20;8.85;;;18.00;74.00;;;;;;5035085;28;20028;-69
2021/05/10 03:04:32;;;;;;;15.43;9.18;;;18.00;73.50;;;;;;5034938;28;20386;-68
2021/05/10 03:06:57;;;;;;;12.30;8.82;;;17.90;73.80;;;;;;5035146;28;20025;-70
2021/05/10 03:09:23;;;;;;;13.77;9.60;;;17.90;73.90;;;;;;5035183;28;20465;-68
2021/05/10 03:11:49;;;;;;;12.07;9.07;;;17.90;73.70;;;;;;5034833;28;20044;-68
2021/05/10 03:14:14;;;;;;;15.85;9.55;;;17.90;73.80;;;;;;5035093;28;20029;-69
2021/05/10 03:16:40;;;;;;;14.70;9.32;;;17.90;73.70;;;;;;5034937;28;20116;-69
2021/05/10 03:19:09;;;;;;;19.10;10.40;;;17.90;73.70;;;;;;5034933;28;20100;-68
2021/05/10 03:21:39;;;;;;;12.88;9.05;;;17.80;74.40;;;;;;5034921;28;20540;-67
2021/05/10 03:24:06;;;;;;;15.30;9.93;;;17.80;74.00;;;;;;5034663;28;20030;-68
2021/05/10 03:26:33;;;;;;;12.18;9.10;;;17.80;74.20;;;;;;5034724;28;20025;-68
2021/05/10 03:29:00;;;;;;;14.15;9.55;;;17.70;74.10;;;;;;5034699;28;20058;-70
2021/05/10 03:31:25;;;;;;;13.65;9.45;;;17.80;73.90;;;;;;5034641;28;20494;-68
2021/05/10 03:33:51;;;;;;;20.25;10.10;;;17.70;74.10;;;;;;5034474;28;20060;-68
2021/05/10 03:36:18;;;;;;;11.73;8.48;;;17.60;74.20;;;;;;5034389;28;20025;-70
2021/05/10 03:38:43;;;;;;;14.82;9.27;;;17.70;74.10;;;;;;5034616;28;20032;-67
2021/05/10 03:41:09;;;;;;;19.38;9.15;;;17.80;73.60;;;;;;5016605;28;20026;-69
2021/05/10 03:43:35;;;;;;;15.38;9.43;;;17.70;73.90;;;;;;5034365;28;20038;-68
2021/05/10 03:46:01;;;;;;;11.43;8.38;;;17.70;73.50;;;;;;5034412;28;20460;-68
2021/05/10 03:48:26;;;;;;;15.82;9.27;;;17.60;73.80;;;;;;5034655;28;20100;-69
2021/05/10 03:50:52;;;;;;;15.20;9.10;;;17.60;73.90;;;;;;5034255;28;20021;-69
2021/05/10 03:53:19;;;;;;;16.85;9.18;;;17.60;73.60;;;;;;5034108;28;20029;-68
2021/05/10 03:55:45;;;;;;;14.80;8.60;;;17.70;73.20;;;;;;5034103;28;20117;-68
2021/05/10 03:58:11;;;;;;;14.77;9.48;;;17.60;73.20;;;;;;5034129;28;20029;-69
2021/05/10 04:00:37;;;;;;;14.18;9.07;;;17.70;73.10;;;;;;5034334;28;20080;-68
2021/05/10 04:03:04;;;;;;;15.88;9.10;;;17.60;72.90;;;;;;5034063;28;20111;-68
2021/05/10 04:15:49;;;;;;;15.32;10.23;;;17.30;75.30;;;;;;5034059;28;20222;-69
2021/05/10 04:18:15;;;;;;;14.07;8.75;;;17.40;73.80;;;;;;5033722;28;20025;-67
2021/05/10 04:20:41;;;;;;;16.30;9.25;;;17.50;73.40;;;;;;5033661;28;20482;-69
2021/05/10 04:23:07;;;;;;;13.70;8.00;;;17.60;72.90;;;;;;5033435;28;20045;-68
2021/05/10 04:25:32;;;;;;;11.68;8.70;;;17.70;72.90;;;;;;5034111;28;20055;-70
2021/05/10 04:27:58;;;;;;;16.17;8.75;;;17.70;72.40;;;;;;5033675;28;20120;-69
2021/05/10 04:30:25;;;;;;;13.02;7.57;;;17.60;72.20;;;;;;5033603;28;20044;-68
2021/05/10 04:32:50;;;;;;;14.73;8.20;;;17.60;72.40;;;;;;5033412;28;20029;-70
2021/05/10 04:35:18;;;;;;;15.10;7.55;;;17.60;72.10;;;;;;5033551;28;20026;-69
2021/05/10 04:37:44;;;;;;;12.73;7.53;;;17.60;71.80;;;;;;5033369;28;20475;-68
2021/05/10 04:40:10;;;;;;;14.75;7.70;;;17.70;71.60;;;;;;5033440;28;20021;-70
2021/05/10 04:42:36;;;;;;;11.05;6.80;;;17.80;71.80;;;;;;5033335;28;20032;-70
2021/05/10 04:45:02;;;;;;;13.73;6.70;;;17.80;71.10;;;;;;5033465;28;20025;-68
2021/05/10 04:47:36;;;;;;;12.32;6.50;;;17.70;70.90;;;;;;5015587;28;20113;-68
2021/05/10 04:50:09;;;;;;;18.05;7.45;;;17.70;71.10;;;;;;5033351;28;20041;-73
2021/05/10 04:52:35;;;;;;;7.60;4.97;;;17.60;71.70;;;;;;5015399;28;20124;-68
2021/05/10 04:55:00;;;;;;;17.63;7.10;;;17.60;71.20;;;;;;5015499;28;20113;-68
2021/05/10 04:57:26;;;;;;;15.20;7.05;;;17.60;70.70;;;;;;5033243;28;20470;-69
2021/05/10 04:59:52;;;;;;;10.98;7.13;;;17.60;70.60;;;;;;5033305;28;20029;-68
2021/05/10 05:02:17;;;;;;;10.38;6.30;;;17.70;70.20;;;;;;5032990;28;20029;-69
2021/05/10 05:04:43;;;;;;;11.43;7.30;;;17.70;70.20;;;;;;5015342;28;20116;-68
2021/05/10 05:07:09;;;;;;;12.05;6.68;;;17.70;69.80;;;;;;5033120;28;20021;-70
2021/05/10 05:09:34;;;;;;;12.82;7.13;;;17.70;69.80;;;;;;5033325;28;20028;-68
2021/05/10 05:12:00;;;;;;;11.27;6.65;;;17.80;69.60;;;;;;5032896;28;20033;-70
2021/05/10 05:14:26;;;;;;;19.58;6.63;;;17.90;69.40;;;;;;5033232;28;20100;-68
2021/05/10 05:16:51;;;;;;;10.73;6.25;;;17.90;69.20;;;;;;5033395;28;20056;-70
2021/05/10 05:19:17;;;;;;;13.98;6.55;;;17.90;68.80;;;;;;5033210;28;20029;-70
2021/05/10 05:21:43;;;;;;;13.40;6.53;;;18.20;68.70;;;;;;5037300;28;20513;-70
2021/05/10 05:24:08;;;;;;;12.75;6.63;;;18.50;68.10;;;;;;5036753;28;20041;-68
2021/05/10 05:26:34;;;;;;;13.57;6.85;;;18.70;67.90;;;;;;5036863;28;20033;-69
2021/05/10 05:29:00;;;;;;;15.05;6.93;;;18.90;67.10;;;;;;5036764;28;20532;-68
2021/05/10 05:31:25;;;;;;;13.68;7.00;;;19.10;66.30;;;;;;5036795;28;20390;-70
2021/05/10 05:33:51;;;;;;;16.38;6.45;;;19.30;65.90;;;;;;5036913;28;20029;-69
2021/05/10 05:36:17;;;;;;;14.98;6.82;;;19.50;65.60;;;;;;5036645;28;20116;-68
2021/05/10 05:38:43;;;;;;;8.98;5.80;;;19.70;65.10;;;;;;5036939;28;20048;-69
2021/05/10 05:41:14;;;;;;;11.40;5.97;;;19.90;64.70;;;;;;5036289;28;20395;-70
2021/05/10 05:43:40;;;;;;;10.77;6.57;;;20.10;64.20;;;;;;5036618;28;20418;-70
2021/05/10 05:46:14;;;;;;;13.13;6.45;;;20.30;63.80;;;;;;5036580;28;20022;-67
2021/05/10 05:48:40;;;;;;;13.30;6.22;;;20.50;63.40;;;;;;5036439;28;20497;-71
2021/05/10 05:51:08;;;;;;;15.07;6.53;;;20.80;63.10;;;;;;5036422;28;20105;-69
2021/05/10 05:53:34;;;;;;;13.90;6.70;;;20.80;62.70;;;;;;5018367;28;20037;-70
2021/05/10 05:56:00;;;;;;;14.80;7.22;;;20.90;62.60;;;;;;5036348;28;20020;-68
2021/05/10 05:58:25;;;;;;;13.80;6.55;;;21.10;62.40;;;;;;5036944;28;20025;-69
2021/05/10 06:00:53;;;;;;;8.32;5.65;;;21.20;62.00;;;;;;5036212;28;20513;-69
2021/05/10 06:03:21;;;;;;;11.32;6.35;;;21.20;62.10;;;;;;5035792;28;20120;-69
2021/05/10 06:05:47;;;;;;;17.00;6.70;;;21.40;61.90;;;;;;5035901;28;20033;-68
2021/05/10 06:08:16;;;;;;;17.42;6.82;;;21.70;61.30;;;;;;5036165;28;20030;-69
2021/05/10 06:10:42;;;;;;;15.93;7.00;;;21.80;60.70;;;;;;5035738;28;20032;-69
2021/05/10 06:13:09;;;;;;;14.15;6.53;;;21.80;60.10;;;;;;5035654;28;20033;-68
2021/05/10 06:15:35;;;;;;;19.50;5.78;;;21.90;60.10;;;;;;5035497;28;20033;-69
2021/05/10 06:18:01;;;;;;;13.15;5.72;;;22.10;59.90;;;;;;5035483;28;20029;-70
2021/05/10 06:20:27;;;;;;;14.90;6.07;;;22.20;60.40;;;;;;5035249;28;20052;-71
2021/05/10 06:22:54;;;;;;;13.82;6.28;;;22.20;58.90;;;;;;5034874;28;20050;-71
2021/05/10 06:25:20;;;;;;;12.55;6.40;;;22.40;58.80;;;;;;5035396;28;20534;-70
2021/05/10 06:27:46;;;;;;;11.32;5.75;;;22.50;58.60;;;;;;5035485;28;20036;-70
2021/05/10 06:30:13;;;;;;;15.93;5.40;;;22.70;58.20;;;;;;5035071;28;20379;-73
2021/05/10 06:32:40;;;;;;;10.60;4.95;;;22.70;58.00;;;;;;5035104;28;20045;-72
2021/05/10 06:35:07;;;;;;;14.32;5.65;;;23.00;58.20;;;;;;5035466;28;20028;-73
2021/05/10 06:37:34;;;;;;;15.80;5.07;;;23.20;57.20;;;;;;5035073;28;20550;-71
2021/05/10 06:40:00;;;;;;;19.25;5.82;;;23.30;56.50;;;;;;5035429;28;20383;-73
2021/05/10 06:42:26;;;;;;;16.23;5.05;;;23.50;56.30;;;;;;5035120;28;20021;-71
2021/05/10 06:44:52;;;;;;;15.15;5.03;;;23.70;55.60;;;;;;5035250;28;20020;-70
2021/05/10 06:47:18;;;;;;;12.55;5.15;;;23.90;55.10;;;;;;5017384;28;20112;-75
2021/05/10 06:49:44;;;;;;;18.88;5.15;;;23.90;54.60;;;;;;5035004;28;20320;-72
2021/05/10 06:52:09;;;;;;;12.82;5.13;;;24.00;54.50;;;;;;5034949;28;20479;-74
2021/05/10 06:54:35;;;;;;;14.38;5.57;;;24.10;54.40;;;;;;5035026;28;20018;-75
2021/05/10 06:57:02;;;;;;;15.32;5.72;;;24.10;53.60;;;;;;5035104;28;20082;-72
2021/05/10 06:59:27;;;;;;;13.00;5.70;;;24.30;54.00;;;;;;5034873;28;20025;-73
2021/05/10 07:01:53;;;;;;;16.90;5.63;;;24.30;54.20;;;;;;5034898;28;20030;-73
2021/05/10 07:04:19;;;;;;;11.65;4.78;;;24.40;52.90;;;;;;5034793;28;20025;-74
2021/05/10 07:06:44;;;;;;;14.10;4.88;;;24.50;52.40;;;;;;5034869;28;20116;-74
2021/05/10 07:09:11;;;;;;;15.10;4.45;;;24.60;51.80;;;;;;5035424;28;20089;-73
2021/05/10 07:11:37;;;;;;;9.93;3.75;;;24.60;51.70;;;;;;5016541;28;20079;-73
2021/05/10 07:14:04;;;;;;;9.63;4.00;;;24.60;50.70;;;;;;5035000;28;20029;-69
2021/05/10 07:16:30;;;;;;;12.43;4.57;;;24.70;51.00;;;;;;5036017;28;20483;-73
2021/05/10 07:18:56;;;;;;;16.20;4.05;;;24.80;51.00;;;;;;5035022;28;20105;-74
2021/05/10 07:21:23;;;;;;;9.80;3.60;;;24.80;50.00;;;;;;5034464;28;20455;-73
2021/05/10 07:23:49;;;;;;;10.73;4.10;;;24.70;49.70;;;;;;5016739;28;20467;-73
2021/05/10 07:26:15;;;;;;;8.55;3.40;;;24.80;49.30;;;;;;5034301;28;20036;-72
2021/05/10 07:28:41;;;;;;;11.23;3.95;;;25.00;49.10;;;;;;5034356;28;20025;-74
2021/05/10 07:31:07;;;;;;;12.40;3.70;;;25.10;49.50;;;;;;5034043;28;20029;-72
2021/05/10 07:33:33;;;;;;;9.05;3.58;;;25.20;49.10;;;;;;5034701;28;20471;-74
2021/05/10 07:35:58;;;;;;;9.25;3.53;;;25.30;49.20;;;;;;5034211;28;20029;-73
2021/05/10 07:38:24;;;;;;;17.63;4.72;;;25.30;47.90;;;;;;5033779;28;20021;-72
2021/05/10 07:40:50;;;;;;;11.02;3.45;;;25.30;47.90;;;;;;5016078;28;20462;-75
2021/05/10 07:43:16;;;;;;;8.70;2.88;;;25.30;48.00;;;;;;5033328;28;20087;-73
2021/05/10 07:45:41;;;;;;;8.50;3.38;;;25.40;48.30;;;;;;5033952;28;20471;-73
2021/05/10 07:48:07;;;;;;;16.08;3.95;;;25.50;47.80;;;;;;5034128;28;20025;-73
2021/05/10 07:50:33;;;;;;;8.93;3.78;;;25.70;48.00;;;;;;5033977;28;20029;-74
2021/05/10 07:52:59;;;;;;;12.63;3.42;;;25.70;47.30;;;;;;5033874;28;20033;-74
2021/05/10 07:55:25;;;;;;;11.63;4.40;;;25.70;47.30;;;;;;5034223;28;20116;-72
2021/05/10 07:57:53;;;;;;;12.02;4.18;;;25.70;46.70;;;;;;5033860;28;20026;-72
2021/05/10 08:00:43;;;;;;;16.13;4.35;;;25.70;46.70;;;;;;5034130;28;20104;-70
2021/05/10 08:05:32;;;;;;;9.48;3.33;;;25.80;46.10;;;;;;5035597;28;20087;-75
2021/05/10 08:07:59;;;;;;;13.35;3.75;;;25.70;46.50;;;;;;5033832;28;20027;-73
2021/05/10 08:10:25;;;;;;;12.32;4.25;;;25.70;46.00;;;;;;5033782;28;20352;-70
2021/05/10 08:12:51;;;;;;;16.48;3.83;;;25.60;46.50;;;;;;5015688;28;20091;-73
2021/05/10 08:15:17;;;;;;;10.70;3.20;;;25.60;46.30;;;;;;5034030;28;20022;-69
2021/05/10 08:17:42;;;;;;;14.55;3.97;;;25.50;46.30;;;;;;5015739;28;20030;-71
2021/05/10 08:20:09;;;;;;;9.93;3.75;;;25.50;46.60;;;;;;5033352;28;20379;-68
2021/05/10 08:22:35;;;;;;;15.73;4.10;;;25.40;46.20;;;;;;5033018;28;20061;-73
2021/05/10 08:25:01;;;;;;;16.33;4.03;;;25.40;46.80;;;;;;5033456;28;20053;-72
2021/05/10 08:27:27;;;;;;;11.25;3.40;;;25.40;46.60;;;;;;5033361;28;20447;-70
2021/05/10 08:29:53;;;;;;;9.93;3.67;;;25.30;46.50;;;;;;5033198;28;20036;-74
2021/05/10 08:32:19;;;;;;;12.70;3.60;;;25.20;46.60;;;;;;5033116;28;20049;-69
2021/05/10 08:34:44;;;;;;;11.55;4.10;;;25.10;46.90;;;;;;5033364;28;20030;-72
2021/05/10 08:37:10;;;;;;;12.52;3.65;;;25.00;46.80;;;;;;5033625;28;20037;-74
2021/05/10 08:39:36;;;;;;;10.93;3.97;;;25.00;47.40;;;;;;5033514;28;20017;-72
2021/05/10 08:42:01;;;;;;;8.38;3.33;;;25.00;47.30;;;;;;5033736;28;20117;-74
2021/05/10 08:44:27;;;;;;;12.35;3.67;;;25.10;47.50;;;;;;5033521;28;20018;-75
2021/05/10 08:46:53;;;;;;;9.25;2.45;;;25.10;47.20;;;;;;5033439;28;20066;-72
2021/05/10 08:49:21;;;;;;;6.43;2.40;;;25.20;46.60;;;;;;5015345;28;20017;-74
2021/05/10 08:51:48;;;;;;;9.65;2.30;;;25.20;46.20;;;;;;4998916;28;20029;-76
2021/05/10 08:54:18;;;;;;;12.85;2.33;;;25.20;45.30;;;;;;5032799;28;20505;-75
2021/05/10 08:56:44;;;;;;;17.00;2.30;;;25.20;44.90;;;;;;5033046;28;20089;-76
2021/05/10 08:59:11;;;;;;;7.00;2.00;;;25.20;45.10;;;;;;5032908;28;20100;-74
2021/05/10 09:02:01;;;;;;;15.73;2.60;;;25.20;44.70;;;;;;5015120;28;20036;-77
2021/05/10 09:04:34;;;;;;;9.93;2.20;;;25.30;44.70;;;;;;5021362;28;20034;-73
2021/05/10 09:07:29;;;;;;;10.88;2.42;;;25.30;43.30;;;;;;5033387;28;20463;-77
2021/05/10 09:09:57;;;;;;;10.77;2.35;;;25.30;44.40;;;;;;5001917;28;20103;-76
2021/05/10 09:12:23;;;;;;;8.00;3.00;;;25.30;44.70;;;;;;5032744;28;20437;-75
2021/05/10 09:14:52;;;;;;;6.63;2.42;;;25.30;44.30;;;;;;5032487;28;20017;-73
2021/05/10 09:17:19;;;;;;;22.45;3.55;;;25.30;44.40;;;;;;5033253;28;20107;-74
2021/05/10 09:19:57;;;;;;;10.57;2.28;;;25.30;44.30;;;;;;5014906;28;20474;-74
2021/05/10 09:22:24;;;;;;;11.50;2.65;;;25.30;44.20;;;;;;5032187;28;20103;-71
2021/05/10 09:24:52;;;;;;;9.65;2.70;;;25.30;44.20;;;;;;5032190;28;20511;-70
2021/05/10 09:27:26;;;;;;;7.95;2.45;;;25.30;44.40;;;;;;5032563;28;20029;-70
2021/05/10 09:30:14;;;;;;;6.22;2.30;;;25.40;43.10;;;;;;5032180;28;20351;-69
2021/05/10 09:32:49;;;;;;;11.38;2.22;;;25.40;44.00;;;;;;5032344;28;20146;-71
2021/05/10 09:35:19;;;;;;;4.95;1.90;;;25.50;44.10;;;;;;5032447;28;20497;-70
2021/05/10 09:38:05;;;;;;;5.95;3.38;;;25.50;42.60;;;;;;5014734;28;20037;-73
2021/05/10 09:40:40;;;;;;;6.78;2.20;;;25.50;42.60;;;;;;5032815;28;20033;-69
2021/05/10 09:43:06;;;;;;;11.68;2.25;;;25.50;43.70;;;;;;5032502;28;20402;-75
2021/05/10 09:45:38;;;;;;;5.00;1.92;;;25.60;43.40;;;;;;5032587;28;20056;-70
2021/05/10 09:48:12;;;;;;;7.65;2.20;;;25.60;43.40;;;;;;5032975;28;20024;-71
2021/05/10 09:50:39;;;;;;;;;;;25.60;43.30;;;;;;5033272;28;20036;-70
2021/05/10 09:53:07;;;;;;;14.15;3.28;;;25.70;43.20;;;;;;5032774;28;19917;-71
2021/05/10 09:55:42;;;;;;;11.57;2.42;;;25.70;43.40;;;;;;5032543;28;20099;-70
2021/05/10 09:58:08;;;;;;;7.72;2.30;;;25.70;43.00;;;;;;5014899;28;20021;-71
2021/05/10 10:00:34;;;;;;;9.50;3.00;;;25.70;42.80;;;;;;5032752;28;20082;-68
2021/05/10 10:03:01;;;;;;;11.25;2.70;;;25.80;42.50;;;;;;5032358;28;20032;-70
2021/05/10 10:05:29;;;;;;;9.45;2.42;;;25.80;42.70;;;;;;5032774;28;20030;-69
2021/05/10 10:07:55;;;;;;;6.68;2.28;;;25.80;42.30;;;;;;5036115;28;20106;-70
2021/05/10 10:10:21;;;;;;;10.35;2.45;;;25.90;42.70;;;;;;5018065;28;20056;-69
2021/05/10 10:12:47;;;;;;;10.23;2.75;;;25.90;42.40;;;;;;5036090;28;20471;-70
2021/05/10 10:15:13;;;;;;;8.25;2.40;;;25.90;42.10;;;;;;5035944;28;20029;-70
2021/05/10 10:17:38;;;;;;;8.68;2.53;;;26.00;42.20;;;;;;5036306;28;20083;-71
2021/05/10 10:20:07;;;;;;;5.22;1.92;;;26.10;42.00;;;;;;5035994;28;20108;-69
2021/05/10 10:22:33;;;;;;;7.88;2.28;;;26.10;41.00;;;;;;5035673;28;20057;-70
2021/05/10 10:25:03;;;;;;;10.70;2.22;;;26.10;41.40;;;;;;5035645;28;20037;-69
2021/05/10 10:27:29;;;;;;;8.82;1.67;;;26.10;41.60;;;;;;5035614;28;20025;-70
2021/05/10 10:29:55;;;;;;;9.48;2.35;;;26.10;41.60;;;;;;5035344;28;20378;-72
2021/05/10 10:32:23;;;;;;;9.50;2.45;;;26.20;41.60;;;;;;5035307;28;20037;-70
2021/05/10 10:34:50;;;;;;;5.07;2.30;;;26.20;41.50;;;;;;5035615;28;20052;-69
2021/05/10 10:37:17;;;;;;;7.93;2.40;;;26.30;41.10;;;;;;5035341;28;20025;-68
2021/05/10 10:39:56;;;;;;;7.25;2.45;;;26.30;41.00;;;;;;5035674;28;20108;-68
2021/05/10 10:42:28;;;;;;;4.32;1.98;;;26.30;40.90;;;;;;5035223;28;20026;-70
2021/05/10 10:45:02;;;;;;;7.82;2.30;;;26.40;40.80;;;;;;5017310;28;20029;-69
2021/05/10 10:47:44;;;;;;;6.28;2.33;;;26.50;40.60;;;;;;5035269;28;20493;-71
2021/05/10 10:50:18;;;;;;;8.38;2.08;;;26.50;39.50;;;;;;5035058;28;20032;-69
2021/05/10 10:52:55;;;;;;;10.07;2.47;;;26.60;40.50;;;;;;5034723;28;20030;-69
2021/05/10 10:55:30;;;;;;;8.00;2.10;;;26.70;40.40;;;;;;5017039;28;20135;-69
2021/05/10 10:58:14;;;;;;;10.07;2.55;;;26.70;39.50;;;;;;5035386;28;20025;-71
2021/05/10 11:01:01;;;;;;;6.68;2.20;;;26.80;40.20;;;;;;5034973;28;20021;-69
2021/05/10 11:03:28;;;;;;;7.38;2.05;;;26.80;39.30;;;;;;5034760;28;20087;-72
2021/05/10 11:05:54;;;;;;;6.45;2.42;;;26.90;40.80;;;;;;5034498;28;20544;-69
2021/05/10 11:08:45;;;;;;;7.22;2.40;;;26.90;40.90;;;;;;5034624;28;20104;-70
2021/05/10 11:11:27;;;;;;;8.25;2.63;;;27.00;39.30;;;;;;5034225;28;20471;-69
2021/05/10 11:13:53;;;;;;;11.77;2.22;;;27.10;39.30;;;;;;5034995;28;20041;-70
2021/05/10 11:16:53;;;;;;;8.63;2.20;;;27.10;40.30;;;;;;5034779;28;20049;-70
2021/05/10 11:19:31;;;;;;;4.10;2.03;;;27.20;38.70;;;;;;5033978;28;20087;-69
2021/05/10 11:21:58;;;;;;;7.57;2.50;;;27.20;38.60;;;;;;5034111;28;20413;-69
2021/05/10 11:24:32;;;;;;;7.15;1.90;;;27.20;40.40;;;;;;5034115;28;20040;-70
2021/05/10 11:27:01;;;;;;;6.68;2.28;;;27.30;39.00;;;;;;5034526;28;20355;-69
2021/05/10 11:29:28;;;;;;;6.40;2.15;;;27.40;40.50;;;;;;5034280;28;20014;-69
2021/05/10 11:31:58;;;;;;;8.38;2.25;;;27.40;39.70;;;;;;5033977;28;20042;-71
2021/05/10 11:34:36;;;;;;;5.60;2.50;;;27.40;38.90;;;;;;5034061;28;20052;-68
2021/05/10 11:37:02;;;;;;;6.72;2.00;;;27.50;39.80;;;;;;5034829;28;20026;-70
2021/05/10 11:39:30;;;;;;;11.40;2.88;;;27.50;41.50;;;;;;5034055;28;20021;-69
2021/05/10 11:42:01;;;;;;;6.57;2.10;;;27.60;42.00;;;;;;5034076;28;20078;-70
2021/05/10 11:44:35;;;;;;;4.75;2.45;;;27.70;42.30;;;;;;5034166;28;20060;-69
2021/05/10 11:47:03;;;;;;;6.40;2.70;;;27.70;42.40;;;;;;5034202;28;20053;-71
2021/05/10 11:49:34;;;;;;;7.70;2.35;;;27.70;42.60;;;;;;5016367;28;20431;-69
2021/05/10 11:52:06;;;;;;;7.43;2.30;;;27.70;41.10;;;;;;5033998;28;20141;-69
2021/05/10 11:54:31;;;;;;;6.25;2.50;;;27.70;41.30;;;;;;5034025;28;20096;-71
2021/05/10 11:57:01;;;;;;;6.90;2.50;;;27.80;42.30;;;;;;5034193;28;20063;-68
2021/05/10 11:59:44;;;;;;;7.88;2.20;;;27.80;42.30;;;;;;5034069;28;20033;-70
2021/05/10 12:02:12;;;;;;;6.63;2.20;;;27.80;42.20;;;;;;5034063;28;20026;-71
2021/05/10 12:04:41;;;;;;;5.88;2.30;;;27.90;42.20;;;;;;5034370;28;20057;-69
2021/05/10 12:07:07;;;;;;;10.45;2.50;;;27.90;42.20;;;;;;5033754;28;20029;-72
2021/05/10 12:09:37;;;;;;;4.53;1.88;;;27.90;41.80;;;;;;5033692;28;20068;-69
2021/05/10 12:12:22;;;;;;;4.95;2.10;;;27.90;41.70;;;;;;5033622;28;20030;-68
2021/05/10 12:14:49;;;;;;;7.43;2.30;;;27.90;41.70;;;;;;5034087;28;20143;-70
2021/05/10 12:17:17;;;;;;;8.13;2.28;;;27.90;41.40;;;;;;5033881;28;20483;-69
2021/05/10 12:19:52;;;;;;;4.97;2.30;;;27.90;41.40;;;;;;5033788;28;20371;-71
2021/05/10 12:22:29;;;;;;;5.25;2.03;;;27.90;41.00;;;;;;5033333;28;20060;-68
2021/05/10 12:25:16;;;;;;;5.68;2.20;;;27.90;41.40;;;;;;5033923;28;20029;-70
2021/05/10 12:27:49;;;;;;;6.32;1.95;;;27.90;39.40;;;;;;5033853;28;20168;-70
2021/05/10 12:30:18;;;;;;;6.03;1.90;;;27.90;40.20;;;;;;5033292;28;20030;-68
2021/05/10 12:32:50;;;;;;;4.20;1.98;;;27.90;39.90;;;;;;5015730;28;20087;-70
2021/05/10 12:35:19;;;;;;;4.03;1.95;;;27.90;38.50;;;;;;5034027;28;20018;-71
2021/05/10 12:37:48;;;;;;;4.93;2.03;;;27.90;40.20;;;;;;5015867;28;20151;-71
2021/05/10 12:40:17;;;;;;;2.95;1.70;;;27.90;39.90;;;;;;5015710;28;20028;-72
2021/05/10 12:42:42;;;;;;;5.22;1.90;;;27.90;39.60;;;;;;5033438;28;20018;-71
2021/05/10 12:45:13;;;;;;;7.43;2.42;;;28.00;39.60;;;;;;5033427;28;20047;-70
2021/05/10 12:47:47;;;;;;;6.00;1.83;;;28.10;39.50;;;;;;5033721;28;20029;-73
2021/05/10 12:50:33;;;;;;;5.40;1.75;;;28.10;37.70;;;;;;5033451;28;20056;-69
2021/05/10 12:53:03;;;;;;;5.38;2.00;;;28.20;37.10;;;;;;5032904;28;20095;-69
2021/05/10 12:55:30;;;;;;;3.53;1.95;;;28.20;38.60;;;;;;5033314;28;20060;-69
2021/05/10 12:57:56;;;;;;;8.48;2.53;;;28.30;38.50;;;;;;5015113;28;20521;-70